createdAt,value
2022-10-22T16:59:59.731Z,13.96
2022-10-22T17:03:03.555Z,14.47
2022-10-22T17:06:08.056Z,14.67
2022-10-22T17:09:12.034Z,14.77
2022-10-22T17:12:16.140Z,14.77
2022-10-22T17:15:21.224Z,14.74
2022-10-22T17:18:25.323Z,14.66
2022-10-22T17:21:28.935Z,14.59
2022-10-22T17:24:32.963Z,14.50
2022-10-22T17:27:36.875Z,14.42
2022-10-22T17:30:42.020Z,14.38
2022-10-22T17:33:46.442Z,14.29
2022-10-22T17:36:50.167Z,14.13
2022-10-22T17:39:53.866Z,14.07
2022-10-22T17:42:57.792Z,14.00
2022-10-22T17:46:11.887Z,13.94
2022-10-22T17:49:18.236Z,13.94
2022-10-22T17:52:21.875Z,13.85
2022-10-22T17:55:25.540Z,13.78
2022-10-22T17:58:30.779Z,13.82
2022-10-22T18:01:40.244Z,13.83
2022-10-22T18:04:43.876Z,13.83
2022-10-22T18:07:47.484Z,13.87
2022-10-22T18:10:51.126Z,13.85
2022-10-22T18:13:56.617Z,13.92
2022-10-22T18:17:03.032Z,13.92
2022-10-22T18:20:07.860Z,13.92
2022-10-22T18:23:13.545Z,13.88
2022-10-22T18:26:20.342Z,13.94
2022-10-22T18:29:26.705Z,13.91
2022-10-22T18:32:33.984Z,13.90
2022-10-22T18:35:37.603Z,13.94
2022-10-22T18:38:41.461Z,13.91
2022-10-22T18:41:45.083Z,13.93
2022-10-22T18:44:48.680Z,13.99
2022-10-22T18:47:54.700Z,14.03
2022-10-22T18:51:03.175Z,14.02
2022-10-22T18:54:22.200Z,14.06
2022-10-22T18:57:28.103Z,14.05
2022-10-22T19:00:31.768Z,14.05
2022-10-22T19:03:36.923Z,13.94
2022-10-22T19:06:45.101Z,13.96
2022-10-22T19:09:49.392Z,13.98
2022-10-22T19:12:52.988Z,13.99
2022-10-22T19:16:03.070Z,13.92
2022-10-22T19:19:09.042Z,13.88
2022-10-22T19:22:12.920Z,13.98
2022-10-22T19:25:16.700Z,13.96
2022-10-22T19:28:20.355Z,13.93
2022-10-22T19:31:26.052Z,13.95
2022-10-22T19:34:31.166Z,13.93
2022-10-22T19:37:37.070Z,14.01
2022-10-22T19:40:42.180Z,13.95
2022-10-22T19:43:49.385Z,13.90
2022-10-22T19:46:53.335Z,13.95
2022-10-22T19:49:58.511Z,13.96
2022-10-22T19:53:02.143Z,13.86
2022-10-22T19:56:07.869Z,13.83
2022-10-22T19:59:12.525Z,13.84
2022-10-22T20:02:17.775Z,13.81
2022-10-22T20:08:32.152Z,13.92
2022-10-22T20:11:35.776Z,13.93
2022-10-22T20:14:40.764Z,13.85
2022-10-22T20:17:44.741Z,13.79
2022-10-22T20:20:50.236Z,13.67
2022-10-22T20:23:56.634Z,13.67
2022-10-22T20:27:05.571Z,13.70
2022-10-22T20:30:10.757Z,13.74
2022-10-22T20:33:14.928Z,13.73
2022-10-22T20:36:22.036Z,13.73
2022-10-22T20:39:25.721Z,13.68
2022-10-22T20:42:29.386Z,13.66
2022-10-22T20:45:33.238Z,13.62
2022-10-22T20:48:39.216Z,13.43
2022-10-22T20:51:44.711Z,13.48
2022-10-22T20:54:48.569Z,13.40
2022-10-22T20:57:52.337Z,13.33
2022-10-22T21:00:56.475Z,13.17
2022-10-22T21:04:00.118Z,13.18
2022-10-22T21:07:05.211Z,13.08
2022-10-22T21:10:09.701Z,13.06
2022-10-22T21:13:13.696Z,12.96
2022-10-22T21:16:19.906Z,12.91
2022-10-22T21:19:24.216Z,12.79
2022-10-22T21:22:29.283Z,12.80
2022-10-22T21:25:32.926Z,12.78
2022-10-22T21:28:37.922Z,12.76
2022-10-22T21:31:41.659Z,12.68
2022-10-22T21:34:45.230Z,12.61
2022-10-22T21:37:50.254Z,12.54
2022-10-22T21:40:53.963Z,12.43
2022-10-22T21:43:57.669Z,12.38
2022-10-22T21:47:01.267Z,12.36
2022-10-22T21:50:05.165Z,12.33
2022-10-22T21:53:10.631Z,12.27
2022-10-22T21:56:16.204Z,12.18
2022-10-22T21:59:20.221Z,12.18
2022-10-22T22:02:23.959Z,12.19
2022-10-22T22:05:27.830Z,12.15
2022-10-22T22:08:33.497Z,12.16
2022-10-22T22:11:37.122Z,12.13
2022-10-22T22:14:41.275Z,12.09
2022-10-22T22:17:45.021Z,12.11
2022-10-22T22:20:48.683Z,12.06
2022-10-22T22:23:53.688Z,12.06
2022-10-22T22:26:57.388Z,12.01
2022-10-22T22:30:01.052Z,11.99
2022-10-22T22:33:05.076Z,11.94
2022-10-22T22:36:09.816Z,11.87
2022-10-22T22:39:17.064Z,11.93
2022-10-22T22:42:20.725Z,11.86
2022-10-22T22:45:24.387Z,11.88
2022-10-22T22:48:28.360Z,11.80
2022-10-22T22:51:32.107Z,11.77
2022-10-22T22:54:37.111Z,11.75
2022-10-22T22:57:40.670Z,11.71
2022-10-22T23:00:44.394Z,11.69
2022-10-22T23:03:53.266Z,11.65
2022-10-22T23:06:57.010Z,11.68
2022-10-22T23:10:01.988Z,11.61
2022-10-22T23:13:05.645Z,11.58
2022-10-22T23:16:13.328Z,11.58
2022-10-22T23:19:19.648Z,11.48
2022-10-22T23:22:23.278Z,11.44
2022-10-22T23:25:28.728Z,11.45
2022-10-22T23:28:32.494Z,11.41
2022-10-22T23:31:36.219Z,11.35
2022-10-22T23:34:39.927Z,11.32
2022-10-22T23:37:43.753Z,11.27
2022-10-22T23:40:55.213Z,11.21
